Time;durP1;ratioP1;P1;durP2;ratioP2;P2;SDS_P1;SDS_P2;PMS_P1;PMS_P2;Temp;Humidity;BMP_temperature;BMP_pressure;BME280_temperature;BME280_humidity;BME280_pressure;Samples;Min_cycle;Max_cycle;Signal;HPM_P1;HPM_P2
2023/02/24 00:02:02;;;;;;;18.20;4.93;;;;;;;3.17;100.00;101637.47;5130804;27;20058;-35
2023/02/24 00:04:31;;;;;;;11.27;3.78;;;;;;;3.13;100.00;101631.63;5131013;27;20034;-35
2023/02/24 00:06:56;;;;;;;13.00;3.95;;;;;;;3.11;100.00;101628.25;5130619;27;20029;-36
2023/02/24 00:09:25;;;;;;;14.63;4.07;;;;;;;3.14;100.00;101629.78;5131747;27;20039;-37
2023/02/24 00:11:58;;;;;;;10.18;3.63;;;;;;;3.12;100.00;101632.59;5130757;27;20027;-37
2023/02/24 00:14:26;;;;;;;12.63;3.80;;;;;;;3.11;100.00;101622.91;5117048;27;20068;-36
2023/02/24 00:16:52;;;;;;;13.70;3.97;;;;;;;3.12;100.00;101632.59;5116977;28;20027;-36
2023/02/24 00:19:21;;;;;;;15.37;3.77;;;;;;;3.09;100.00;101630.28;5116800;28;20024;-37
2023/02/24 00:21:48;;;;;;;12.02;3.42;;;;;;;3.14;100.00;101617.25;5117117;28;20273;-36
2023/02/24 00:24:14;;;;;;;17.48;4.03;;;;;;;3.15;100.00;101613.56;5117219;28;20488;-37
2023/02/24 00:26:39;;;;;;;;;;;;;;;3.29;100.00;101612.09;5117298;28;20035;-36
2023/02/24 00:29:07;;;;;;;10.93;3.90;;;;;;;3.28;100.00;101611.28;5116569;28;19904;-36
2023/02/24 00:31:32;;;;;;;12.10;3.88;;;;;;;3.23;100.00;101589.53;5116737;28;20024;-36
2023/02/24 00:33:59;;;;;;;16.50;3.83;;;;;;;3.34;100.00;101607.09;5117549;28;20027;-36
2023/02/24 00:36:28;;;;;;;18.20;4.90;;;;;;;3.40;100.00;101600.25;5116563;28;20111;-36
2023/02/24 00:38:56;;;;;;;15.00;4.40;;;;;;;3.36;100.00;101597.91;5116511;28;20459;-36
2023/02/24 00:41:29;;;;;;;13.18;3.92;;;;;;;3.36;100.00;101592.56;5116740;28;20073;-34
2023/02/24 00:43:58;;;;;;;20.20;5.13;;;;;;;3.40;100.00;101589.56;5116522;28;20046;-36
2023/02/24 00:46:25;;;;;;;13.73;4.57;;;;;;;3.46;100.00;101591.56;5116177;28;20083;-35
2023/02/24 00:48:55;;;;;;;17.10;4.15;;;;;;;3.50;100.00;101596.41;5116648;28;20039;-35
2023/02/24 00:51:24;;;;;;;15.00;5.03;;;;;;;3.57;100.00;101591.25;5116687;28;20036;-36
2023/02/24 00:53:55;;;;;;;14.68;4.30;;;;;;;3.57;100.00;101591.25;5116298;27;20074;-36
2023/02/24 00:56:23;;;;;;;15.05;4.88;;;;;;;3.55;100.00;101588.72;5116604;28;20020;-36
2023/02/24 00:58:48;;;;;;;13.65;4.22;;;;;;;3.54;100.00;101570.19;5116494;28;20027;-36
2023/02/24 01:01:19;;;;;;;12.38;3.97;;;;;;;3.54;100.00;101576.38;5115915;28;20478;-36
2023/02/24 01:03:47;;;;;;;8.50;3.55;;;;;;;3.64;100.00;101575.38;5115941;28;20394;-36
2023/02/24 01:06:13;;;;;;;17.77;4.63;;;;;;;3.68;100.00;101580.22;5116081;28;20023;-37
2023/02/24 01:08:46;;;;;;;10.18;3.55;;;;;;;3.72;100.00;101578.88;5116016;28;20030;-35
2023/02/24 01:13:56;;;;;;;14.10;4.35;;;;;;;3.72;100.00;101557.47;5116278;28;20082;-35
2023/02/24 01:16:21;;;;;;;14.80;4.23;;;;;;;3.74;100.00;101563.47;5116267;28;20065;-35
2023/02/24 01:18:47;;;;;;;8.90;3.30;;;;;;;3.69;100.00;101552.44;5115547;28;20027;-35
2023/02/24 01:21:14;;;;;;;13.98;3.90;;;;;;;3.73;100.00;101552.97;5116286;28;20439;-36
2023/02/24 01:23:41;;;;;;;14.20;3.67;;;;;;;3.72;100.00;101549.44;5115582;27;20114;-36
2023/02/24 01:26:08;;;;;;;11.10;3.63;;;;;;;3.52;100.00;101524.91;5115646;28;20069;-36
2023/02/24 01:28:34;;;;;;;16.20;3.67;;;;;;;3.68;100.00;101552.63;5115298;28;20031;-36
2023/02/24 01:31:01;;;;;;;13.27;3.47;;;;;;;3.69;100.00;101549.78;5115637;28;20160;-36
2023/02/24 01:33:26;;;;;;;16.30;4.35;;;;;;;3.61;100.00;101528.38;5115775;28;20285;-35
2023/02/24 01:35:54;;;;;;;12.90;3.90;;;;;;;3.71;100.00;101536.22;5115218;28;20120;-36
2023/02/24 01:38:22;;;;;;;12.35;3.72;;;;;;;3.72;100.00;101532.56;5115373;28;20032;-35
2023/02/24 01:40:58;;;;;;;10.23;3.35;;;;;;;3.71;100.00;101523.72;5115590;28;20065;-35
2023/02/24 01:43:23;;;;;;;11.27;3.47;;;;;;;3.72;100.00;101527.22;5115028;28;20600;-36
2023/02/24 01:45:50;;;;;;;11.73;3.95;;;;;;;3.72;100.00;101530.72;5115913;27;20110;-36
2023/02/24 01:48:16;;;;;;;11.77;3.45;;;;;;;3.64;100.00;101513.84;5114030;28;20038;-36
2023/02/24 01:50:44;;;;;;;11.40;3.80;;;;;;;3.70;100.00;101507.81;5116055;28;20448;-36
2023/02/24 01:53:10;;;;;;;12.27;3.88;;;;;;;3.66;100.00;101496.63;5115091;28;20375;-36
2023/02/24 01:55:42;;;;;;;13.90;3.85;;;;;;;3.66;100.00;101502.00;5115455;28;20030;-36
2023/02/24 01:58:25;;;;;;;15.52;4.00;;;;;;;3.69;100.00;101493.59;5115657;28;20347;-36
2023/02/24 02:00:51;;;;;;;12.70;4.18;;;;;;;3.69;100.00;101490.09;5115241;28;20063;-35
2023/02/24 02:03:18;;;;;;;;;;;;;;;3.79;100.00;101485.38;5115641;28;20040;-35
2023/02/24 02:05:47;;;;;;;;;;;;;;;3.80;100.00;101482.53;5116567;28;19976;-36
2023/02/24 02:08:16;;;;;;;12.77;3.50;;;;;;;3.71;100.00;101478.25;5114547;28;19908;-36
2023/02/24 02:10:43;;;;;;;11.60;4.57;;;;;;;3.72;100.00;101481.75;5114246;28;20103;-36
2023/02/24 02:13:11;;;;;;;13.00;4.35;;;;;;;3.67;100.00;101466.22;5114514;28;20020;-36
2023/02/24 02:15:45;;;;;;;12.48;3.90;;;;;;;3.58;100.00;101452.00;5114487;28;20062;-36
2023/02/24 02:18:25;;;;;;;12.50;3.72;;;;;;;3.61;100.00;101453.50;5114698;28;20020;-36
2023/02/24 02:21:17;;;;;;;9.40;3.50;;;;;;;3.60;100.00;101449.16;5114658;28;20099;-36
2023/02/24 02:23:56;;;;;;;8.25;3.33;;;;;;;3.49;100.00;101439.66;5114404;28;20023;-36
2023/02/24 02:26:56;;;;;;;12.05;3.35;;;;;;;3.41;100.00;101449.53;5114928;28;20110;-36
2023/02/24 02:30:05;;;;;;;10.38;3.17;;;;;;;3.33;100.00;101432.50;5111525;28;20062;-36
2023/02/24 02:33:00;;;;;;;10.85;4.30;;;;;;;3.32;100.00;101430.84;5115054;28;20084;-36
2023/02/24 02:35:45;;;;;;;10.73;4.25;;;;;;;3.27;100.00;101425.16;5115033;28;20428;-36
2023/02/24 02:38:24;;;;;;;10.23;3.22;;;;;;;3.23;100.00;101434.53;5114828;28;20102;-36
2023/02/24 02:41:20;;;;;;;16.38;3.85;;;;;;;3.15;100.00;101434.50;5113946;28;20049;-35
2023/02/24 02:43:55;;;;;;;9.18;3.63;;;;;;;2.99;100.00;101427.34;5114362;28;20470;-35
2023/02/24 02:46:35;;;;;;;16.70;4.85;;;;;;;2.94;100.00;101423.50;5114605;28;20028;-35
2023/02/24 02:49:08;;;;;;;11.63;3.53;;;;;;;2.82;100.00;101413.13;5113965;28;20016;-36
2023/02/24 02:51:39;;;;;;;12.90;3.85;;;;;;;2.80;100.00;101420.50;5115088;28;20019;-36
2023/02/24 02:54:37;;;;;;;8.80;2.95;;;;;;;2.77;100.00;101411.97;5114497;28;20068;-36
2023/02/24 02:57:16;;;;;;;10.60;3.70;;;;;;;2.62;100.00;101413.63;5114510;28;20019;-35
2023/02/24 02:59:48;;;;;;;13.27;4.22;;;;;;;2.62;100.00;101413.63;5114432;28;20152;-35
2023/02/24 03:02:17;;;;;;;12.82;3.60;;;;;;;2.57;100.00;101406.09;5113873;28;20043;-35
2023/02/24 03:04:51;;;;;;;10.65;3.53;;;;;;;2.63;100.00;101410.78;5114657;28;20360;-39
2023/02/24 03:07:19;;;;;;;14.25;4.75;;;;;;;2.49;100.00;101406.09;5114135;28;20023;-36
2023/02/24 03:09:55;;;;;;;12.63;3.63;;;;;;;2.49;100.00;101403.41;5114385;28;20023;-36
2023/02/24 03:12:25;;;;;;;11.30;4.00;;;;;;;2.41;100.00;101396.25;5114355;28;20030;-36
2023/02/24 03:14:57;;;;;;;12.90;3.30;;;;;;;2.33;100.00;101405.06;5114563;28;20273;-36
2023/02/24 03:17:27;;;;;;;11.23;3.15;;;;;;;2.30;100.00;101400.06;5114572;28;20024;-36
2023/02/24 03:20:16;;;;;;;18.33;4.07;;;;;;;2.25;100.00;101401.56;5114301;28;20034;-35
2023/02/24 03:22:55;;;;;;;8.68;3.13;;;;;;;2.12;100.00;101379.84;5113938;28;20093;-35
2023/02/24 03:25:27;;;;;;;9.10;3.35;;;;;;;2.04;100.00;101375.28;5113629;28;20055;-35
2023/02/24 03:27:59;;;;;;;8.32;3.40;;;;;;;2.05;100.00;101385.81;5113876;28;20026;-35
2023/02/24 03:30:36;;;;;;;13.15;4.45;;;;;;;2.01;100.00;101383.63;5114413;28;20074;-35
2023/02/24 03:33:08;;;;;;;;;;;;;;;2.14;100.00;101380.50;5114225;28;20082;-35
2023/02/24 03:35:40;;;;;;;14.55;3.95;;;;;;;2.00;100.00;101379.28;5113470;28;20002;-35
2023/02/24 03:38:08;;;;;;;12.40;3.47;;;;;;;1.98;100.00;101373.28;5113772;28;20415;-35
2023/02/24 03:40:36;;;;;;;9.98;3.75;;;;;;;1.93;100.00;101371.09;5113753;28;20027;-35
2023/02/24 03:43:12;;;;;;;8.70;3.10;;;;;;;1.92;100.00;101360.59;5113328;28;20022;-35
2023/02/24 03:45:39;;;;;;;7.68;2.95;;;;;;;1.83;100.00;101364.22;5113444;28;20115;-35
2023/02/24 03:48:07;;;;;;;8.15;2.85;;;;;;;1.83;100.00;101361.56;5114752;28;20023;-35
2023/02/24 03:50:34;;;;;;;10.57;3.22;;;;;;;1.72;100.00;101346.69;5117858;28;20027;-35
2023/02/24 03:53:14;;;;;;;;;;;;;;;1.92;100.00;101366.75;5117872;28;20031;-35
2023/02/24 03:56:12;;;;;;;9.85;3.10;;;;;;;1.86;100.00;101358.59;5118275;28;19911;-35
2023/02/24 03:59:08;;;;;;;9.73;3.38;;;;;;;1.87;100.00;101355.75;5118220;28;20096;-35
2023/02/24 04:01:56;;;;;;;10.35;3.20;;;;;;;1.74;100.00;101332.19;5082765;28;20055;-35
2023/02/24 04:04:49;;;;;;;9.13;3.15;;;;;;;1.79;100.00;101345.88;5117997;28;20055;-35
2023/02/24 04:07:30;;;;;;;11.23;3.85;;;;;;;1.70;100.00;101340.66;5116917;28;20034;-35
2023/02/24 04:10:09;;;;;;;10.60;2.70;;;;;;;1.69;100.00;101341.69;5117773;28;20028;-35
2023/02/24 04:12:34;;;;;;;11.32;3.25;;;;;;;1.64;100.00;101339.50;5117444;28;20024;-36
2023/02/24 04:15:07;;;;;;;9.40;3.00;;;;;;;1.64;100.00;101339.50;5117457;28;20027;-36
2023/02/24 04:17:47;;;;;;;9.30;2.88;;;;;;;1.66;100.00;101333.97;5116745;28;20140;-36
2023/02/24 04:20:19;;;;;;;8.75;2.88;;;;;;;1.76;100.00;101348.06;5116766;28;20467;-36
2023/02/24 04:23:09;;;;;;;7.93;3.20;;;;;;;1.72;100.00;101325.38;5117716;28;20047;-36
2023/02/24 04:25:36;;;;;;;9.30;2.75;;;;;;;1.77;100.00;101339.88;5116904;28;20027;-36
2023/02/24 04:28:03;;;;;;;13.23;4.18;;;;;;;1.80;100.00;101330.72;5116893;28;20159;-36
2023/02/24 04:30:33;;;;;;;9.15;2.45;;;;;;;1.76;100.00;101321.38;5117073;28;20072;-36
2023/02/24 04:32:58;;;;;;;10.18;2.47;;;;;;;1.74;100.00;101328.69;5116409;28;20024;-35
2023/02/24 04:35:27;;;;;;;7.78;2.17;;;;;;;1.86;100.00;101331.91;5116845;28;20030;-35
2023/02/24 04:37:54;;;;;;;11.73;3.20;;;;;;;1.82;100.00;101330.56;5116649;28;20115;-35
2023/02/24 04:40:21;;;;;;;14.25;3.13;;;;;;;1.85;100.00;101331.06;5116902;28;20038;-35
2023/02/24 04:42:48;;;;;;;8.85;2.50;;;;;;;1.89;100.00;101321.75;5117240;28;20339;-36
2023/02/24 04:45:26;;;;;;;8.27;2.53;;;;;;;1.79;100.00;101294.38;5116470;28;20518;-35
2023/02/24 04:47:59;;;;;;;12.40;3.55;;;;;;;1.95;100.00;101314.91;5115403;28;20043;-37
2023/02/24 04:50:27;;;;;;;13.20;3.00;;;;;;;1.97;100.00;101307.59;5117204;28;20046;-35
2023/02/24 04:53:01;;;;;;;10.95;3.75;;;;;;;1.91;100.00;101297.59;5116604;28;20024;-44
2023/02/24 04:55:31;;;;;;;7.80;2.22;;;;;;;2.06;100.00;101306.63;5116869;28;20035;-35
2023/02/24 04:57:58;;;;;;;12.15;3.30;;;;;;;2.06;100.00;101306.63;5116308;28;20467;-35
2023/02/24 05:00:32;;;;;;;14.68;2.80;;;;;;;2.06;100.00;101302.13;5115807;28;20019;-35
2023/02/24 05:03:00;;;;;;;9.32;3.17;;;;;;;2.09;100.00;101306.28;5115208;28;20499;-35
2023/02/24 05:05:27;;;;;;;10.23;3.00;;;;;;;2.15;100.00;101300.31;5115952;28;20024;-35
2023/02/24 05:08:03;;;;;;;12.02;3.67;;;;;;;2.09;100.00;101292.94;5116324;28;20023;-36
2023/02/24 05:10:38;;;;;;;9.18;2.58;;;;;;;2.10;100.00;101283.97;5116901;28;20454;-36
2023/02/24 05:13:05;;;;;;;6.35;2.50;;;;;;;2.00;100.00;101259.25;5115598;28;20028;-36
2023/02/24 05:15:31;;;;;;;9.60;2.83;;;;;;;2.09;100.00;101268.94;5116763;28;20325;-36
2023/02/24 05:18:06;;;;;;;11.02;3.15;;;;;;;2.08;100.00;101271.75;5115958;28;20110;-36
2023/02/24 05:23:43;;;;;;;8.27;2.42;;;;;;;2.03;100.00;101269.59;5116396;28;20104;-36
2023/02/24 05:26:14;;;;;;;9.73;3.05;;;;;;;2.01;100.00;101266.28;5115732;28;20027;-36
2023/02/24 05:28:40;;;;;;;8.07;2.55;;;;;;;2.06;100.00;101258.59;5115356;28;20459;-36
2023/02/24 05:31:13;;;;;;;8.13;2.30;;;;;;;2.05;100.00;101251.59;5115672;28;20116;-36
2023/02/24 05:33:41;;;;;;;7.80;2.65;;;;;;;2.07;100.00;101254.94;5115884;28;20024;-36
2023/02/24 05:36:09;;;;;;;5.35;2.00;;;;;;;2.08;100.00;101251.25;5115229;27;20023;-36
2023/02/24 05:38:36;;;;;;;13.70;3.22;;;;;;;2.00;100.00;101236.09;5115474;28;20055;-36
2023/02/24 05:41:15;;;;;;;7.38;2.88;;;;;;;2.06;100.00;101248.75;5115352;28;20032;-36
2023/02/24 05:43:46;;;;;;;10.73;2.72;;;;;;;2.13;100.00;101237.41;5115335;28;20447;-36
2023/02/24 05:46:15;;;;;;;9.27;2.28;;;;;;;2.10;100.00;101238.59;5115877;28;20509;-36
2023/02/24 05:48:41;;;;;;;11.45;2.50;;;;;;;2.12;100.00;101223.25;5115266;28;20023;-36
2023/02/24 05:51:10;;;;;;;;;;;;;;;2.24;100.00;101229.91;5115710;28;20455;-36
2023/02/24 05:53:40;;;;;;;7.82;2.42;;;;;;;2.18;100.00;101225.25;5114834;28;19904;-36
2023/02/24 05:56:09;;;;;;;9.32;2.40;;;;;;;2.09;100.00;101207.56;5115442;28;20050;-36
2023/02/24 05:58:44;;;;;;;10.45;2.45;;;;;;;2.11;100.00;101208.25;5115048;28;20049;-36
2023/02/24 06:01:14;;;;;;;11.45;2.85;;;;;;;2.13;100.00;101208.06;5115500;28;20040;-36
2023/02/24 06:03:47;;;;;;;8.00;2.35;;;;;;;2.15;100.00;101214.06;5115387;28;20424;-36
2023/02/24 06:06:15;;;;;;;16.50;3.25;;;;;;;2.12;100.00;101207.25;5115179;28;20080;-36
2023/02/24 06:08:48;;;;;;;10.00;2.47;;;;;;;2.14;100.00;101191.06;5114881;28;20024;-36
2023/02/24 06:11:15;;;;;;;8.98;2.72;;;;;;;2.14;100.00;101199.91;5114886;28;20509;-36
2023/02/24 06:13:46;;;;;;;8.27;2.35;;;;;;;2.17;100.00;101201.41;5114766;28;20019;-36
2023/02/24 06:16:16;;;;;;;9.93;2.95;;;;;;;2.09;100.00;101188.88;5115051;28;20043;-36
2023/02/24 06:18:46;;;;;;;11.07;2.72;;;;;;;2.14;100.00;101191.88;5114646;28;20016;-36
2023/02/24 06:21:11;;;;;;;7.78;2.60;;;;;;;2.15;100.00;101190.91;5114596;28;20026;-36
2023/02/24 06:23:38;;;;;;;9.27;2.40;;;;;;;2.14;100.00;101181.22;5115158;28;20016;-36
2023/02/24 06:26:10;;;;;;;7.15;2.58;;;;;;;2.13;100.00;101174.22;5114906;28;20340;-36
2023/02/24 06:28:36;;;;;;;8.95;2.72;;;;;;;2.15;100.00;101166.03;5113610;28;20032;-36
2023/02/24 06:31:05;;;;;;;8.35;2.60;;;;;;;2.13;100.00;101168.06;5114643;28;20039;-36
2023/02/24 06:33:32;;;;;;;11.88;3.75;;;;;;;2.10;100.00;101163.91;5114169;27;20100;-36
2023/02/24 06:35:59;;;;;;;12.82;2.95;;;;;;;2.10;100.00;101157.72;5114746;28;20019;-36
2023/02/24 06:38:24;;;;;;;11.52;2.65;;;;;;;2.11;100.00;101151.41;5114976;28;20054;-36
2023/02/24 06:40:51;;;;;;;12.07;2.80;;;;;;;2.11;100.00;101162.91;5114897;28;20100;-36
2023/02/24 06:43:16;;;;;;;7.60;2.50;;;;;;;2.08;100.00;101151.72;5114313;28;20016;-37
2023/02/24 06:45:42;;;;;;;9.80;2.60;;;;;;;2.11;100.00;101138.06;5114141;28;20102;-36
2023/02/24 06:48:07;;;;;;;10.30;2.37;;;;;;;2.07;100.00;101140.22;5114517;28;20055;-36
2023/02/24 06:50:33;;;;;;;8.02;2.47;;;;;;;2.16;100.00;101152.56;5114573;28;20016;-36
2023/02/24 06:52:59;;;;;;;9.77;2.30;;;;;;;2.18;100.00;101147.03;5114262;28;20470;-36
2023/02/24 06:55:26;;;;;;;7.90;2.72;;;;;;;2.11;100.00;101138.88;5113294;28;20052;-36
2023/02/24 06:57:56;;;;;;;10.13;2.25;;;;;;;2.09;100.00;101124.88;5114369;28;20365;-36
2023/02/24 07:00:26;;;;;;;9.00;2.30;;;;;;;2.14;100.00;101135.84;5114685;28;20107;-36
2023/02/24 07:02:51;;;;;;;7.32;2.47;;;;;;;2.18;100.00;101133.69;5114429;28;20043;-36
2023/02/24 07:05:17;;;;;;;12.40;3.03;;;;;;;2.21;100.00;101131.53;5113875;28;20517;-36
2023/02/24 07:07:44;;;;;;;7.13;2.40;;;;;;;2.20;100.00;101123.72;5114097;28;20460;-36
2023/02/24 07:10:12;;;;;;;8.88;2.22;;;;;;;2.22;100.00;101119.84;5113765;28;20035;-36
2023/02/24 07:12:40;;;;;;;9.70;2.42;;;;;;;2.22;100.00;101130.53;5114298;28;20024;-36
2023/02/24 07:15:07;;;;;;;8.98;2.47;;;;;;;2.26;100.00;101110.50;5114873;28;20102;-36
2023/02/24 07:17:32;;;;;;;9.35;2.42;;;;;;;2.32;100.00;101119.66;5113936;28;20026;-36
2023/02/24 07:20:09;;;;;;;8.77;2.47;;;;;;;2.29;100.00;101107.50;5113726;28;20040;-36
2023/02/24 07:22:35;;;;;;;8.23;2.65;;;;;;;2.26;100.00;101094.50;5113901;28;20348;-36
2023/02/24 07:25:00;;;;;;;8.37;2.60;;;;;;;2.39;100.00;101109.97;5117904;28;20027;-36
2023/02/24 07:27:26;;;;;;;10.30;2.50;;;;;;;2.46;100.00;101120.81;5118076;28;20023;-36
2023/02/24 07:29:52;;;;;;;7.57;2.03;;;;;;;2.46;100.00;101115.47;5118048;28;20102;-36
2023/02/24 07:32:18;;;;;;;9.43;2.65;;;;;;;2.55;100.00;101125.13;5117914;28;20035;-36
2023/02/24 07:34:43;;;;;;;7.83;2.20;;;;;;;2.55;100.00;101128.63;5118184;28;20019;-36
2023/02/24 07:37:11;;;;;;;7.78;2.08;;;;;;;2.53;100.00;101108.41;5117544;28;20390;-36
2023/02/24 07:39:38;;;;;;;8.80;2.25;;;;;;;2.62;100.00;101118.06;5118086;28;20443;-36
2023/02/24 07:42:04;;;;;;;5.95;1.98;;;;;;;2.64;100.00;101117.91;5117595;28;20055;-36
2023/02/24 07:44:29;;;;;;;10.10;1.95;;;;;;;2.68;100.00;101108.53;5117700;28;20031;-36
2023/02/24 07:46:58;;;;;;;9.33;2.00;;;;;;;2.73;100.00;101106.16;5117433;28;20059;-36
2023/02/24 07:49:25;;;;;;;9.77;2.20;;;;;;;2.68;100.00;101092.50;5117709;28;20029;-36
2023/02/24 07:51:51;;;;;;;8.00;2.47;;;;;;;2.73;100.00;101085.66;5117233;28;20039;-36
2023/02/24 07:54:22;;;;;;;11.15;2.55;;;;;;;2.67;100.00;101067.66;5117264;27;20117;-36
2023/02/24 07:56:55;;;;;;;7.93;1.85;;;;;;;2.76;100.00;101084.47;5118068;28;20055;-36
2023/02/24 07:59:22;;;;;;;8.13;1.83;;;;;;;2.78;100.00;101083.31;5117929;28;20520;-36
2023/02/24 08:01:54;;;;;;;7.95;1.92;;;;;;;2.82;100.00;101073.91;5117837;28;20355;-36
2023/02/24 08:04:27;;;;;;;8.27;2.10;;;;;;;2.84;100.00;101079.09;5117969;28;20071;-36
2023/02/24 08:06:56;;;;;;;8.73;2.60;;;;;;;2.89;100.00;101070.56;5117267;28;20023;-36
2023/02/24 08:12:16;;;;;;;9.45;2.60;;;;;;;2.90;100.00;101048.19;5117281;28;20128;-36
2023/02/24 08:14:49;;;;;;;9.68;1.85;;;;;;;2.96;100.00;101056.31;5117149;28;20077;-36
2023/02/24 08:17:19;;;;;;;8.63;1.95;;;;;;;2.98;100.00;101056.16;5117292;28;20444;-36
2023/02/24 08:19:49;;;;;;;7.22;2.25;;;;;;;2.99;100.00;101063.16;5117715;27;20020;-36
2023/02/24 08:22:18;;;;;;;5.70;1.75;;;;;;;3.05;100.00;101062.44;5118041;28;20027;-36
2023/02/24 08:24:51;;;;;;;7.85;2.10;;;;;;;3.10;100.00;101050.22;5117055;28;20026;-36
2023/02/24 08:27:20;;;;;;;9.77;2.47;;;;;;;3.17;100.00;101050.34;5116905;28;20022;-36
2023/02/24 08:29:57;;;;;;;8.65;2.30;;;;;;;3.21;100.00;101045.47;5116890;28;20031;-36
2023/02/24 08:32:23;;;;;;;6.38;1.83;;;;;;;3.26;100.00;101046.59;5117412;28;20019;-35
2023/02/24 08:34:55;;;;;;;8.43;2.42;;;;;;;3.31;100.00;101041.53;5116055;28;20123;-36
2023/02/24 08:37:20;;;;;;;8.15;3.10;;;;;;;3.28;100.00;101023.22;5117299;28;20024;-36
2023/02/24 08:39:50;;;;;;;10.48;2.30;;;;;;;3.35;100.00;101026.00;5117007;28;20046;-36
2023/02/24 08:42:15;;;;;;;7.53;1.83;;;;;;;3.45;100.00;101036.44;5116503;28;20076;-36
2023/02/24 08:44:41;;;;;;;9.70;2.60;;;;;;;3.48;100.00;101026.22;5116948;28;20359;-35
2023/02/24 08:47:08;;;;;;;9.98;2.47;;;;;;;3.47;100.00;101011.19;5116502;28;20492;-35
2023/02/24 08:49:34;;;;;;;7.57;2.17;;;;;;;3.51;100.00;101019.66;5117048;28;20046;-35
2023/02/24 08:52:01;;;;;;;8.02;2.30;;;;;;;3.54;100.00;101019.31;5116101;28;20463;-35
2023/02/24 08:54:30;;;;;;;9.48;2.05;;;;;;;3.51;100.00;101007.13;5116662;28;20363;-36
2023/02/24 08:57:06;;;;;;;7.40;2.40;;;;;;;3.54;100.00;100998.75;5116842;28;20356;-35
2023/02/24 08:59:36;;;;;;;11.32;2.53;;;;;;;3.59;100.00;101000.88;5116629;28;20028;-35
2023/02/24 09:02:36;;;;;;;6.55;1.98;;;;;;;3.49;100.00;100973.56;5116210;28;20344;-35
2023/02/24 09:05:09;;;;;;;8.15;1.90;;;;;;;3.58;100.00;100981.34;5116089;27;20118;-35
2023/02/24 09:07:37;;;;;;;7.22;2.42;;;;;;;3.62;100.00;100981.81;5116645;28;20023;-35
2023/02/24 09:10:16;;;;;;;5.70;2.05;;;;;;;3.68;100.00;100983.75;5116660;28;20026;-35
2023/02/24 09:12:42;;;;;;;7.07;2.47;;;;;;;3.69;100.00;100968.53;5116612;28;20365;-35
2023/02/24 09:15:10;;;;;;;9.10;3.08;;;;;;;3.75;100.00;100965.13;5116278;28;20054;-35
2023/02/24 09:23:06;;;;;;;8.07;1.75;;;;;;;3.83;100.00;100959.69;5116399;28;20447;-35
2023/02/24 09:25:42;;;;;;;5.82;1.67;;;;;;;3.88;100.00;100944.75;5116094;28;20024;-35
2023/02/24 09:28:17;;;;;;;7.65;2.05;;;;;;;3.93;100.00;100943.38;5116042;28;20359;-35
2023/02/24 09:30:54;;;;;;;9.50;2.03;;;;;;;4.00;100.00;100941.59;5115669;28;20023;-35
2023/02/24 09:33:20;;;;;;;6.72;2.05;;;;;;;4.08;100.00;100936.97;5115630;28;20031;-35
2023/02/24 09:35:52;;;;;;;7.95;1.80;;;;;;;4.09;100.00;100935.13;5116150;28;20040;-35
2023/02/24 09:38:41;;;;;;;7.63;1.80;;;;;;;4.09;100.00;100929.78;5115892;28;20023;-36
2023/02/24 09:41:30;;;;;;;7.60;2.00;;;;;;;4.17;100.00;100928.88;5115303;28;20028;-36
2023/02/24 09:44:06;;;;;;;9.18;2.33;;;;;;;4.20;100.00;100921.28;5115147;28;20023;-36
2023/02/24 09:47:08;;;;;;;9.32;2.10;;;;;;;4.19;100.00;100914.25;5115021;28;20098;-37
2023/02/24 09:49:55;;;;;;;7.45;1.95;;;;;;;4.25;100.00;100929.59;5115215;28;20460;-36
2023/02/24 09:52:45;;;;;;;8.33;2.20;;;;;;;4.20;100.00;100923.97;5116118;28;20023;-36
2023/02/24 09:55:34;;;;;;;7.72;2.20;;;;;;;4.26;100.00;100907.16;5114899;27;20050;-35
2023/02/24 09:58:37;;;;;;;7.93;1.98;;;;;;;4.29;100.00;100912.13;5115103;28;20498;-36
2023/02/24 10:01:32;;;;;;;6.70;2.65;;;;;;;4.29;100.00;100896.06;5115307;28;20073;-36
2023/02/24 10:04:35;;;;;;;10.63;1.83;;;;;;;4.29;100.00;100896.06;5115614;28;20364;-36
2023/02/24 10:07:10;;;;;;;7.13;1.90;;;;;;;4.32;100.00;100901.03;5115792;28;20031;-37
2023/02/24 10:09:45;;;;;;;8.07;2.50;;;;;;;4.39;100.00;100898.44;5115784;28;20347;-36
2023/02/24 10:12:22;;;;;;;7.50;2.40;;;;;;;4.41;100.00;100893.72;5115476;28;20024;-36
2023/02/24 10:14:53;;;;;;;10.82;3.00;;;;;;;4.41;100.00;100893.72;5114622;28;20031;-36
2023/02/24 10:17:23;;;;;;;7.25;2.55;;;;;;;4.47;100.00;100895.63;5115174;28;20355;-36
2023/02/24 10:19:58;;;;;;;6.38;2.35;;;;;;;4.48;100.00;100897.28;5114485;28;20053;-36
2023/02/24 10:22:52;;;;;;;11.88;3.25;;;;;;;4.44;100.00;100882.66;5115477;28;20020;-35
2023/02/24 10:25:20;;;;;;;6.65;2.28;;;;;;;4.53;100.00;100900.22;5114988;28;20027;-36
2023/02/24 10:27:57;;;;;;;7.65;2.35;;;;;;;4.55;100.00;100889.34;5115118;28;20050;-36
2023/02/24 10:31:08;;;;;;;6.82;1.92;;;;;;;4.58;100.00;100880.91;5115426;28;20102;-36
2023/02/24 10:33:45;;;;;;;7.43;2.58;;;;;;;4.53;100.00;100867.28;5114528;28;20103;-36
2023/02/24 10:36:16;;;;;;;10.18;2.58;;;;;;;4.64;100.00;100883.69;5114265;28;20028;-35
2023/02/24 10:38:45;;;;;;;9.70;2.92;;;;;;;4.64;100.00;100864.94;5114709;28;20027;-35
2023/02/24 10:41:12;;;;;;;6.95;2.42;;;;;;;4.72;100.00;100866.63;5114401;28;20028;-36
2023/02/24 10:43:44;;;;;;;8.20;2.35;;;;;;;4.72;100.00;100861.28;5114395;28;20136;-36
2023/02/24 10:46:33;;;;;;;7.25;2.45;;;;;;;4.82;100.00;100867.13;5114390;28;20020;-36
2023/02/24 10:49:00;;;;;;;7.10;2.90;;;;;;;4.83;100.00;100866.13;5114651;28;20026;-37
2023/02/24 10:51:37;;;;;;;8.07;2.90;;;;;;;4.81;100.00;100844.03;5114287;27;20027;-36
2023/02/24 10:54:21;;;;;;;12.13;4.15;;;;;;;4.88;100.00;100853.00;5114261;28;20059;-35
2023/02/24 10:56:59;;;;;;;14.75;3.72;;;;;;;4.91;100.00;100847.22;5113766;28;20531;-36
2023/02/24 11:05:36;;;;;;;7.18;2.30;;;;;;;4.90;100.00;100836.72;5090065;28;20055;-36
2023/02/24 11:08:06;;;;;;;11.25;3.53;;;;;;;4.95;100.00;100831.59;5114934;28;20043;-36
2023/02/24 11:10:51;;;;;;;9.43;3.83;;;;;;;4.87;100.00;100819.16;5114055;28;20035;-36
2023/02/24 11:18:54;;;;;;;8.93;4.47;;;;;;;4.94;100.00;100813.03;5114312;28;20126;-36
2023/02/24 11:21:24;;;;;;;7.45;2.78;;;;;;;4.98;100.00;100831.22;5114767;28;20364;-36
2023/02/24 11:23:58;;;;;;;8.65;3.20;;;;;;;4.92;100.00;100810.53;5114595;28;20020;-36
2023/02/24 11:26:29;;;;;;;7.70;2.70;;;;;;;4.96;100.00;100808.31;5113963;28;20028;-36
2023/02/24 11:29:05;;;;;;;9.18;3.03;;;;;;;5.00;100.00;100802.34;5113531;28;20367;-36
2023/02/24 11:31:50;;;;;;;10.10;3.55;;;;;;;4.94;100.00;100797.78;5114666;28;20130;-36
2023/02/24 11:34:15;;;;;;;10.95;3.72;;;;;;;4.93;100.00;100796.13;5114079;28;20023;-36
2023/02/24 11:36:53;;;;;;;8.43;4.00;;;;;;;4.95;100.00;100798.59;5114083;28;20024;-36
2023/02/24 11:39:30;;;;;;;13.18;4.93;;;;;;;4.94;100.00;100792.41;5114371;28;20439;-36
2023/02/24 11:42:01;;;;;;;13.95;5.22;;;;;;;4.92;100.00;100789.09;5114023;28;20047;-36
2023/02/24 11:44:49;;;;;;;8.85;3.22;;;;;;;4.95;100.00;100782.53;5113755;28;20020;-36
2023/02/24 11:47:20;;;;;;;6.97;3.47;;;;;;;4.85;100.00;100766.78;5114322;28;20393;-36
2023/02/24 11:50:21;;;;;;;7.35;2.58;;;;;;;4.93;100.00;100784.56;5113999;28;20024;-36
2023/02/24 11:52:49;;;;;;;12.45;3.45;;;;;;;4.89;100.00;100773.44;5113578;28;20464;-36
2023/02/24 11:55:45;;;;;;;7.18;3.22;;;;;;;4.90;100.00;100775.91;5113454;28;20487;-36
2023/02/24 11:58:53;;;;;;;7.05;2.95;;;;;;;4.90;100.00;100773.22;5112110;28;20348;-36
2023/02/24 12:01:18;;;;;;;8.35;2.90;;;;;;;4.80;100.00;100762.03;5030700;28;20377;-36
2023/02/24 12:04:04;;;;;;;8.53;3.70;;;;;;;4.84;100.00;100774.00;5098875;28;20051;-36
2023/02/24 12:06:39;;;;;;;12.40;4.10;;;;;;;4.77;100.00;100759.72;5114413;28;20032;-36
2023/02/24 12:09:18;;;;;;;14.52;4.03;;;;;;;4.79;100.00;100757.69;5114897;28;20443;-36
2023/02/24 12:11:52;;;;;;;10.63;3.83;;;;;;;4.79;100.00;100748.81;5116977;28;20054;-36
2023/02/24 12:14:25;;;;;;;13.15;4.45;;;;;;;4.73;100.00;100737.03;5117279;28;20028;-36